Dordrecht Airport


Codes: FADG/
Name: Dordrecht Airport
City: Dordrecht
Country: South Africa
Elevation: 5200 ft.

Photos at Dordrecht Airport


   Photos courtesy of SpottingLog. You can add your own sightings and photos by signing up for a free trial today.



No photos found.

Weather at Dordrecht Airport


Time (UTC)DescriptionTempratureWindCloud coverageVisibilityPressureHumidity
26-Jun-2024 00:00Clear Sky5°C0 mph, W0%10000m1032hPa84%
26-Jun-2024 03:00Clear Sky5°C2 mph, NW0%10000m1031hPa79%
26-Jun-2024 06:00Clear Sky6°C4 mph, N0%10000m1032hPa63%
26-Jun-2024 09:00Clear Sky13°C2 mph, NW0%10000m1031hPa35%
26-Jun-2024 12:00Clear Sky15°C4 mph, S0%10000m1028hPa26%
26-Jun-2024 15:00Clear Sky11°C7 mph, SE0%10000m1029hPa42%
26-Jun-2024 18:00Clear Sky8°C4 mph, SE0%10000m1032hPa57%
26-Jun-2024 21:00Clear Sky6°C2 mph, SE0%10000m1032hPa69%
27-Jun-2024 00:00Clear Sky5°C2 mph, S0%10000m1031hPa76%
27-Jun-2024 03:00Clear Sky4°C2 mph, N0%10000m1032hPa77%
27-Jun-2024 06:00Clear Sky6°C4 mph, N0%10000m1032hPa59%
27-Jun-2024 09:00Clear Sky14°C7 mph, NW0%10000m1031hPa33%
27-Jun-2024 12:00Clear Sky16°C7 mph, NW0%10000m1028hPa29%
27-Jun-2024 15:00Clear Sky12°C4 mph, NW0%10000m1029hPa42%
27-Jun-2024 18:00Clear Sky8°C2 mph, NW0%10000m1030hPa55%
27-Jun-2024 21:00Clear Sky7°C2 mph, NW0%10000m1030hPa61%
28-Jun-2024 00:00Clear Sky7°C4 mph, N0%10000m1029hPa64%
28-Jun-2024 03:00Clear Sky6°C4 mph, N0%10000m1029hPa67%
28-Jun-2024 06:00Clear Sky8°C4 mph, N0%10000m1030hPa60%
28-Jun-2024 09:00Clear Sky14°C11 mph, NW0%10000m1027hPa38%
28-Jun-2024 12:00Clear Sky15°C16 mph, NW1%10000m1024hPa37%
28-Jun-2024 15:00Clear Sky12°C9 mph, NW3%10000m1024hPa43%
28-Jun-2024 18:00Clear Sky9°C7 mph, NW5%10000m1025hPa50%
28-Jun-2024 21:00Broken Clouds10°C7 mph, NW56%10000m1024hPa47%
29-Jun-2024 00:00Broken Clouds8°C7 mph, NW56%10000m1023hPa55%
29-Jun-2024 03:00Broken Clouds8°C16 mph, NW56%10000m1023hPa65%
29-Jun-2024 06:00Broken Clouds8°C11 mph, NW70%10000m1023hPa71%
29-Jun-2024 09:00Broken Clouds14°C22 mph, NW83%10000m1021hPa50%
29-Jun-2024 12:00Scattered Clouds16°C20 mph, NW44%10000m1018hPa38%
29-Jun-2024 15:00Few Clouds13°C13 mph, NW13%10000m1018hPa44%
29-Jun-2024 18:00Clear Sky10°C9 mph, NW7%10000m1019hPa53%
29-Jun-2024 21:00Clear Sky9°C9 mph, N2%10000m1020hPa57%
30-Jun-2024 00:00Scattered Clouds9°C9 mph, N31%10000m1019hPa56%
30-Jun-2024 03:00Scattered Clouds8°C11 mph, N35%10000m1019hPa62%
30-Jun-2024 06:00Few Clouds8°C9 mph, N23%10000m1021hPa62%
30-Jun-2024 09:00Overcast Clouds14°C20 mph, NW87%10000m1020hPa42%
30-Jun-2024 12:00Broken Clouds17°C22 mph, NW77%10000m1017hPa33%
30-Jun-2024 15:00Overcast Clouds14°C11 mph, W88%10000m1019hPa36%
30-Jun-2024 18:00Broken Clouds9°C7 mph, NW64%10000m1022hPa47%
30-Jun-2024 21:00Broken Clouds7°C4 mph, NW57%10000m1023hPa46%